Time;durP1;ratioP1;P1;durP2;ratioP2;P2;SDS_P1;SDS_P2;PMS_P1;PMS_P2;Temp;Humidity;BMP_temperature;BMP_pressure;BME280_temperature;BME280_humidity;BME280_pressure;Samples;Min_cycle;Max_cycle;Signal;HPM_P1;HPM_P2
2022/02/08 00:09:47;;;;;;;0.20;0.10;;;8.80;99.90;;;;;;25842732;23;20192;-75
2022/02/08 00:19:51;;;;;;;0.20;0.10;;;9.00;99.90;;;;;;25841000;23;20165;-74
2022/02/08 00:29:56;;;;;;;0.20;0.10;;;8.90;99.90;;;;;;25841624;23;20250;-74
2022/02/08 00:40:00;;;;;;;0.20;0.10;;;9.00;99.90;;;;;;25842573;23;20187;-74
2022/02/08 00:50:08;;;;;;;0.20;0.10;;;8.50;99.90;;;;;;25840512;23;20224;-74
2022/02/08 01:00:13;;;;;;;0.20;0.10;;;8.40;99.90;;;;;;25812320;23;20227;-74
2022/02/08 01:10:22;;;;;;;0.20;0.10;;;8.90;99.90;;;;;;25838583;23;20196;-72
2022/02/08 01:20:32;;;;;;;0.20;0.10;;;8.70;99.90;;;;;;25840295;23;20153;-72
2022/02/08 01:30:46;;;;;;;0.53;0.53;;;8.70;99.90;;;;;;25811744;23;20224;-72
2022/02/08 01:41:07;;;;;;;0.20;0.00;;;8.70;99.90;;;;;;25838811;23;20157;-74
2022/02/08 01:51:14;;;;;;;0.20;0.10;;;8.40;99.90;;;;;;25837988;23;20192;-74
2022/02/08 02:01:18;;;;;;;0.20;0.10;;;8.20;99.90;;;;;;25835988;23;20201;-73
2022/02/08 02:11:23;;;;;;;0.20;0.13;;;8.50;99.90;;;;;;25808862;23;20204;-73
2022/02/08 02:21:29;;;;;;;0.20;0.00;;;8.30;99.90;;;;;;25837807;23;20176;-72
2022/02/08 02:31:34;;;;;;;0.20;0.07;;;8.00;99.90;;;;;;25809053;23;20220;-68
2022/02/08 02:41:39;;;;;;;0.20;0.10;;;8.10;99.90;;;;;;25837257;23;20164;-68
2022/02/08 02:51:44;;;;;;;0.20;0.00;;;8.10;99.90;;;;;;25836462;23;20188;-68
2022/02/08 03:02:12;;;;;;;0.20;0.10;;;7.80;99.90;;;;;;25835684;23;20193;-68
2022/02/08 03:22:38;;;;;;;0.20;0.00;;;8.00;99.90;;;;;;25844725;23;20172;-69
2022/02/08 03:32:44;;;;;;;0.20;0.07;;;8.30;99.90;;;;;;25844468;23;20200;-68
2022/02/08 03:42:58;;;;;;;0.20;0.00;;;8.40;99.90;;;;;;25842728;23;20635;-68
2022/02/08 03:53:04;;;;;;;0.20;0.10;;;8.90;99.90;;;;;;25842062;23;20709;-69
2022/02/08 04:03:08;;;;;;;0.20;0.10;;;9.20;99.90;;;;;;25843494;23;20184;-68
2022/02/08 04:13:17;;;;;;;0.20;0.10;;;9.30;99.90;;;;;;25842647;23;20185;-69
2022/02/08 04:34:19;;;;;;;0.20;0.00;;;9.50;99.90;;;;;;25525345;23;20228;-65
2022/02/08 04:44:29;;;;;;;0.20;0.10;;;9.40;99.90;;;;;;25813649;23;20200;-64
2022/02/08 04:54:43;;;;;;;0.20;0.10;;;9.40;99.90;;;;;;25840191;23;20227;-65
2022/02/08 05:36:04;;;;;;;0.20;0.10;;;9.00;99.90;;;;;;25810916;23;20223;-64
2022/02/08 05:46:32;;;;;;;1.50;1.40;;;9.10;99.90;;;;;;25810621;23;20266;-64
2022/02/08 05:56:37;;;;;;;0.20;0.10;;;9.00;99.90;;;;;;25836820;23;20200;-66
2022/02/08 06:06:41;;;;;;;0.20;0.10;;;9.10;99.90;;;;;;25835240;23;20638;-65
2022/02/08 06:16:46;;;;;;;0.20;0.00;;;9.40;99.90;;;;;;25833319;23;20196;-69
2022/02/08 06:26:50;;;;;;;0.20;0.10;;;9.60;99.90;;;;;;25833777;23;20169;-70
2022/02/08 06:37:00;;;;;;;0.73;0.73;;;9.90;99.90;;;;;;25833207;23;20685;-68
2022/02/08 06:47:05;;;;;;;0.20;0.10;;;10.00;99.90;;;;;;25831595;23;20194;-67
2022/02/08 06:57:10;;;;;;;0.20;0.10;;;9.80;99.90;;;;;;25798385;23;20244;-67
2022/02/08 07:07:16;;;;;;;0.20;0.10;;;9.90;99.90;;;;;;25824325;23;20625;-67
2022/02/08 07:17:21;;;;;;;0.20;0.10;;;9.90;99.90;;;;;;25824800;23;20483;-66
2022/02/08 07:27:25;;;;;;;0.20;0.10;;;9.90;99.90;;;;;;25775732;23;20164;-66
2022/02/08 07:37:34;;;;;;;0.20;0.13;;;10.00;99.90;;;;;;25830975;23;20189;-67
2022/02/08 07:47:38;;;;;;;0.20;0.10;;;10.00;99.90;;;;;;25802275;23;20623;-74
2022/02/08 07:57:43;;;;;;;0.20;0.10;;;10.10;99.90;;;;;;25830364;23;20201;-73
2022/02/08 08:07:47;;;;;;;0.20;0.10;;;10.10;99.90;;;;;;25835441;23;20173;-73
2022/02/08 08:17:57;;;;;;;0.20;0.10;;;10.10;99.90;;;;;;25807752;23;20204;-75
2022/02/08 08:28:01;;;;;;;0.20;0.10;;;10.60;99.90;;;;;;25835000;23;20171;-76
2022/02/08 08:38:08;;;;;;;0.20;0.10;;;11.30;99.90;;;;;;25836733;23;20642;-78
2022/02/08 08:48:42;;;;;;;0.20;0.10;;;11.90;99.90;;;;;;25835213;23;20613;-79
2022/02/08 08:59:01;;;;;;;0.20;0.10;;;12.70;99.90;;;;;;25810134;23;20200;-77
2022/02/08 09:09:11;;;;;;;0.20;0.00;;;13.40;99.90;;;;;;25835510;23;20244;-75
2022/02/08 09:29:46;;;;;;;0.20;0.10;;;13.90;99.90;;;;;;25834087;23;20694;-67
2022/02/08 09:39:53;;;;;;;0.20;0.10;;;14.00;99.90;;;;;;25834128;23;20188;-67
2022/02/08 09:50:05;;;;;;;0.20;0.10;;;14.10;99.90;;;;;;25831970;23;20189;-68
2022/02/08 10:00:13;;;;;;;0.20;0.20;;;14.30;99.90;;;;;;25829236;23;20211;-66
2022/02/08 10:10:25;;;;;;;0.20;0.10;;;14.50;99.90;;;;;;25830940;23;20160;-66
2022/02/08 10:31:24;;;;;;;0.20;0.10;;;15.00;99.90;;;;;;25829335;23;20204;-65
2022/02/08 10:41:33;;;;;;;0.20;0.10;;;15.30;99.90;;;;;;25801487;23;20165;-65
2022/02/08 10:51:44;;;;;;;0.20;0.10;;;15.50;99.90;;;;;;25831976;23;20185;-66
2022/02/08 11:02:01;;;;;;;0.20;0.10;;;15.90;99.90;;;;;;25804087;23;20192;-64
2022/02/08 11:12:14;;;;;;;0.20;0.10;;;16.70;99.90;;;;;;25805362;23;20192;-64
2022/02/08 11:22:34;;;;;;;0.20;0.10;;;17.00;99.90;;;;;;25807054;23;20172;-80
2022/02/08 11:32:54;;;;;;;0.20;0.00;;;17.70;99.90;;;;;;25837021;23;20188;-80
2022/02/08 11:53:31;;;;;;;0.20;0.10;;;18.30;99.90;;;;;;25752641;23;20209;-81
2022/02/08 12:55:54;;;;;;;0.20;0.10;;;20.20;99.90;;;;;;25832476;23;20208;-70
2022/02/08 14:08:21;;;;;;;0.20;0.00;;;21.40;99.90;;;;;;25835626;23;20705;-70
2022/02/08 14:18:42;;;;;;;0.20;0.10;;;21.10;99.90;;;;;;25835897;23;20184;-70
2022/02/08 15:10:17;;;;;;;0.20;0.10;;;21.00;99.90;;;;;;25827108;23;20180;-74
2022/02/08 15:20:27;;;;;;;0.20;0.00;;;21.50;99.90;;;;;;25825661;23;20180;-66
2022/02/08 15:30:34;;;;;;;0.20;0.10;;;20.50;99.90;;;;;;25826853;23;20591;-66
2022/02/08 15:40:38;;;;;;;0.20;0.10;;;19.80;99.90;;;;;;25824743;23;20185;-65
2022/02/08 15:50:53;;;;;;;0.20;0.10;;;19.00;99.90;;;;;;25824239;23;20172;-65
2022/02/08 16:01:08;;;;;;;0.20;0.10;;;18.00;99.90;;;;;;25821954;23;20661;-67
2022/02/08 16:11:37;;;;;;;0.20;0.10;;;17.30;99.90;;;;;;25821829;23;20691;-66
2022/02/08 16:22:14;;;;;;;0.20;0.10;;;16.10;99.90;;;;;;25796576;23;20169;-67
2022/02/08 16:53:10;;;;;;;0.20;0.10;;;15.20;99.90;;;;;;25797482;23;20600;-66
2022/02/08 17:03:14;;;;;;;0.20;0.00;;;15.00;99.90;;;;;;25826936;23;20153;-67
2022/02/08 17:13:35;;;;;;;0.20;0.00;;;14.80;99.90;;;;;;25827613;23;20197;-67
2022/02/08 17:54:56;;;;;;;0.20;0.00;;;13.90;99.90;;;;;;25824355;23;20631;-64
2022/02/08 18:05:01;;;;;;;0.20;0.00;;;13.70;99.90;;;;;;25826885;22;20196;-63
2022/02/08 18:15:11;;;;;;;0.20;0.00;;;13.70;99.90;;;;;;25818205;23;20196;-64
2022/02/08 19:17:19;;;;;;;0.20;0.00;;;13.40;99.90;;;;;;25824070;23;20283;-67
2022/02/08 19:27:23;;;;;;;0.20;0.00;;;13.40;99.90;;;;;;25822445;23;20511;-67
2022/02/08 19:37:28;;;;;;;0.20;0.00;;;13.10;99.90;;;;;;25795461;23;20192;-66
2022/02/08 19:47:32;;;;;;;0.20;0.00;;;13.00;99.90;;;;;;25817605;23;20169;-66
2022/02/08 19:57:37;;;;;;;0.20;0.10;;;12.90;99.90;;;;;;25826430;23;20212;-76
2022/02/08 20:07:41;;;;;;;0.20;0.10;;;12.50;99.90;;;;;;25833127;23;20179;-78
2022/02/08 20:17:50;;;;;;;0.20;0.10;;;12.00;99.90;;;;;;25832946;23;20517;-77
2022/02/08 20:28:01;;;;;;;0.20;0.10;;;11.70;99.90;;;;;;25831779;23;20264;-77
2022/02/08 20:38:07;;;;;;;0.20;0.10;;;11.40;99.90;;;;;;25827185;23;20515;-78
2022/02/08 20:48:12;;;;;;;0.20;0.10;;;11.00;99.90;;;;;;25835565;23;20480;-74
2022/02/08 20:58:21;;;;;;;0.20;0.10;;;11.10;99.90;;;;;;25833548;23;20203;-78
2022/02/08 21:08:25;;;;;;;0.20;0.07;;;11.40;99.90;;;;;;25834248;23;20173;-65
2022/02/08 21:18:30;;;;;;;0.20;0.03;;;11.30;99.90;;;;;;25805159;23;20193;-65
2022/02/08 21:28:48;;;;;;;0.20;0.10;;;10.90;99.90;;;;;;25832202;23;20216;-65
2022/02/08 21:49:20;;;;;;;0.20;0.00;;;11.00;99.90;;;;;;25833173;23;20193;-64
2022/02/08 21:59:25;;;;;;;0.20;0.10;;;11.10;99.90;;;;;;25803364;23;20212;-64
2022/02/08 22:09:29;;;;;;;0.20;0.10;;;11.10;99.90;;;;;;25832207;23;20153;-64
2022/02/08 22:30:06;;;;;;;0.20;0.10;;;11.30;99.90;;;;;;25803184;23;20177;-64
2022/02/08 22:40:20;;;;;;;0.20;0.00;;;11.10;99.90;;;;;;25827703;23;20189;-64
2022/02/08 22:50:24;;;;;;;0.20;0.10;;;11.00;99.90;;;;;;25818969;23;20169;-64
2022/02/08 23:00:31;;;;;;;0.20;0.00;;;10.60;99.90;;;;;;25829886;23;20196;-73
2022/02/08 23:10:45;;;;;;;0.20;0.00;;;10.40;99.90;;;;;;25830999;23;20215;-73
2022/02/08 23:41:34;;;;;;;0.20;0.00;;;10.10;99.90;;;;;;25814010;23;20498;-74
2022/02/08 23:51:39;;;;;;;0.20;0.10;;;9.80;99.90;;;;;;25815909;23;20267;-75
